sensor_id;sensor_type;location;lat;lon;timestamp;pressure;altitude;pressure_sealevel;temperature;humidity
6347;BME280;3206;42.666;23.600;2022-09-09T00:00:47;95424.16;;;17.65;100.00
6347;BME280;3206;42.666;23.600;2022-09-09T00:03:20;95419.13;;;17.60;100.00
6347;BME280;3206;42.666;23.600;2022-09-09T00:05:55;95409.44;;;17.55;100.00
6347;BME280;3206;42.666;23.600;2022-09-09T00:08:33;95406.75;;;17.55;100.00
6347;BME280;3206;42.666;23.600;2022-09-09T00:11:05;95398.28;;;17.57;100.00
6347;BME280;3206;42.666;23.600;2022-09-09T00:13:34;95412.94;;;17.56;100.00
6347;BME280;3206;42.666;23.600;2022-09-09T00:16:07;95408.25;;;17.53;100.00
6347;BME280;3206;42.666;23.600;2022-09-09T00:18:41;95392.00;;;17.46;100.00
6347;BME280;3206;42.666;23.600;2022-09-09T00:21:13;95396.22;;;17.40;100.00
6347;BME280;3206;42.666;23.600;2022-09-09T00:23:45;95384.13;;;17.27;100.00
6347;BME280;3206;42.666;23.600;2022-09-09T00:26:18;95394.94;;;17.27;100.00
6347;BME280;3206;42.666;23.600;2022-09-09T00:28:52;95387.94;;;17.22;100.00
6347;BME280;3206;42.666;23.600;2022-09-09T00:31:23;95390.25;;;17.20;100.00
6347;BME280;3206;42.666;23.600;2022-09-09T00:33:55;95386.38;;;17.18;100.00
6347;BME280;3206;42.666;23.600;2022-09-09T00:36:26;95393.22;;;17.08;100.00
6347;BME280;3206;42.666;23.600;2022-09-09T00:38:56;95397.03;;;17.04;100.00
6347;BME280;3206;42.666;23.600;2022-09-09T00:41:33;95387.00;;;16.98;100.00
6347;BME280;3206;42.666;23.600;2022-09-09T00:44:16;95383.03;;;16.88;100.00
6347;BME280;3206;42.666;23.600;2022-09-09T00:47:06;95372.19;;;16.81;100.00
6347;BME280;3206;42.666;23.600;2022-09-09T00:49:47;95358.59;;;16.71;100.00
6347;BME280;3206;42.666;23.600;2022-09-09T00:52:28;95364.69;;;16.64;100.00
6347;BME280;3206;42.666;23.600;2022-09-09T00:55:05;95360.50;;;16.67;100.00
6347;BME280;3206;42.666;23.600;2022-09-09T00:57:35;95368.94;;;16.65;100.00
6347;BME280;3206;42.666;23.600;2022-09-09T01:00:23;95374.00;;;16.70;100.00
6347;BME280;3206;42.666;23.600;2022-09-09T01:03:10;95380.13;;;16.67;100.00
6347;BME280;3206;42.666;23.600;2022-09-09T01:05:54;95382.78;;;16.64;100.00
6347;BME280;3206;42.666;23.600;2022-09-09T01:08:43;95380.91;;;16.68;100.00
6347;BME280;3206;42.666;23.600;2022-09-09T01:11:17;95380.47;;;16.62;100.00
6347;BME280;3206;42.666;23.600;2022-09-09T01:13:47;95370.44;;;16.59;100.00
6347;BME280;3206;42.666;23.600;2022-09-09T01:16:17;95375.38;;;16.54;100.00
6347;BME280;3206;42.666;23.600;2022-09-09T01:18:47;95369.59;;;16.55;100.00
6347;BME280;3206;42.666;23.600;2022-09-09T01:21:22;95368.03;;;16.51;100.00
6347;BME280;3206;42.666;23.600;2022-09-09T01:24:05;95371.09;;;16.49;100.00
6347;BME280;3206;42.666;23.600;2022-09-09T01:26:39;95378.38;;;16.45;100.00
6347;BME280;3206;42.666;23.600;2022-09-09T01:29:08;95380.34;;;16.48;100.00
6347;BME280;3206;42.666;23.600;2022-09-09T01:31:38;95381.88;;;16.49;100.00
6347;BME280;3206;42.666;23.600;2022-09-09T01:34:10;95373.44;;;16.51;100.00
6347;BME280;3206;42.666;23.600;2022-09-09T01:36:39;95361.84;;;16.50;100.00
6347;BME280;3206;42.666;23.600;2022-09-09T01:39:08;95369.53;;;16.48;100.00
6347;BME280;3206;42.666;23.600;2022-09-09T01:41:34;95360.88;;;16.32;100.00
6347;BME280;3206;42.666;23.600;2022-09-09T01:44:03;95365.50;;;16.32;100.00
6347;BME280;3206;42.666;23.600;2022-09-09T01:46:30;95377.03;;;16.32;100.00
6347;BME280;3206;42.666;23.600;2022-09-09T01:48:57;95363.34;;;16.44;100.00
6347;BME280;3206;42.666;23.600;2022-09-09T01:51:25;95367.56;;;16.42;100.00
6347;BME280;3206;42.666;23.600;2022-09-09T01:53:52;95377.22;;;16.46;100.00
6347;BME280;3206;42.666;23.600;2022-09-09T01:56:27;95378.72;;;16.40;100.00
6347;BME280;3206;42.666;23.600;2022-09-09T01:59:10;95378.72;;;16.40;100.00
6347;BME280;3206;42.666;23.600;2022-09-09T02:01:56;95378.72;;;16.40;100.00
6347;BME280;3206;42.666;23.600;2022-09-09T02:04:37;95390.22;;;16.37;100.00
6347;BME280;3206;42.666;23.600;2022-09-09T02:07:14;95397.91;;;16.35;100.00
6347;BME280;3206;42.666;23.600;2022-09-09T02:09:50;95404.00;;;16.32;100.00
6347;BME280;3206;42.666;23.600;2022-09-09T02:12:20;95397.91;;;16.35;100.00
6347;BME280;3206;42.666;23.600;2022-09-09T02:14:54;95395.00;;;16.21;100.00
6347;BME280;3206;42.666;23.600;2022-09-09T02:17:26;95391.91;;;16.19;100.00
6347;BME280;3206;42.666;23.600;2022-09-09T02:19:59;95390.06;;;16.23;100.00
6347;BME280;3206;42.666;23.600;2022-09-09T02:22:31;95384.56;;;16.16;100.00
6347;BME280;3206;42.666;23.600;2022-09-09T02:25:01;95386.91;;;16.21;100.00
6347;BME280;3206;42.666;23.600;2022-09-09T02:27:30;95385.38;;;16.20;100.00
6347;BME280;3206;42.666;23.600;2022-09-09T02:29:59;95386.53;;;16.19;100.00
6347;BME280;3206;42.666;23.600;2022-09-09T02:32:29;95379.97;;;16.20;100.00
6347;BME280;3206;42.666;23.600;2022-09-09T02:35:03;95371.47;;;16.15;100.00
6347;BME280;3206;42.666;23.600;2022-09-09T02:37:38;95370.72;;;16.18;100.00
6347;BME280;3206;42.666;23.600;2022-09-09T02:40:07;95373.09;;;16.23;100.00
6347;BME280;3206;42.666;23.600;2022-09-09T02:42:38;95371.88;;;16.17;100.00
6347;BME280;3206;42.666;23.600;2022-09-09T02:45:08;95368.44;;;16.20;100.00
6347;BME280;3206;42.666;23.600;2022-09-09T02:47:36;95365.28;;;16.14;100.00
6347;BME280;3206;42.666;23.600;2022-09-09T02:50:12;95366.09;;;16.18;100.00
6347;BME280;3206;42.666;23.600;2022-09-09T02:52:47;95373.44;;;16.18;100.00
6347;BME280;3206;42.666;23.600;2022-09-09T02:55:23;95364.16;;;16.15;100.00
6347;BME280;3206;42.666;23.600;2022-09-09T02:57:54;95374.56;;;16.17;100.00
6347;BME280;3206;42.666;23.600;2022-09-09T03:00:27;95379.09;;;16.09;100.00
6347;BME280;3206;42.666;23.600;2022-09-09T03:02:54;95382.94;;;16.08;100.00
6347;BME280;3206;42.666;23.600;2022-09-09T03:05:21;95375.22;;;16.07;100.00
6347;BME280;3206;42.666;23.600;2022-09-09T03:07:49;95386.69;;;16.00;100.00
6347;BME280;3206;42.666;23.600;2022-09-09T03:10:16;95377.41;;;15.98;100.00
6347;BME280;3206;42.666;23.600;2022-09-09T03:12:42;95373.13;;;15.93;100.00
6347;BME280;3206;42.666;23.600;2022-09-09T03:15:09;95379.66;;;15.92;100.00
6347;BME280;3206;42.666;23.600;2022-09-09T03:17:37;95373.31;;;15.78;100.00
6347;BME280;3206;42.666;23.600;2022-09-09T03:20:05;95376.69;;;15.71;100.00
6347;BME280;3206;42.666;23.600;2022-09-09T03:22:32;95374.63;;;15.61;100.00
6347;BME280;3206;42.666;23.600;2022-09-09T03:24:59;95383.00;;;15.56;100.00
6347;BME280;3206;42.666;23.600;2022-09-09T03:27:26;95382.59;;;15.54;100.00
6347;BME280;3206;42.666;23.600;2022-09-09T03:29:52;95377.53;;;15.49;100.00
6347;BME280;3206;42.666;23.600;2022-09-09T03:32:19;95379.81;;;15.47;100.00
6347;BME280;3206;42.666;23.600;2022-09-09T03:34:49;95386.03;;;15.51;100.00
6347;BME280;3206;42.666;23.600;2022-09-09T03:37:16;95381.78;;;15.50;100.00
6347;BME280;3206;42.666;23.600;2022-09-09T03:39:43;95388.38;;;15.53;100.00
6347;BME280;3206;42.666;23.600;2022-09-09T03:42:12;95393.22;;;15.44;100.00
6347;BME280;3206;42.666;23.600;2022-09-09T03:44:39;95390.44;;;15.37;100.00
6347;BME280;3206;42.666;23.600;2022-09-09T03:47:07;95394.41;;;15.46;100.00
6347;BME280;3206;42.666;23.600;2022-09-09T03:49:33;95390.59;;;15.47;100.00
6347;BME280;3206;42.666;23.600;2022-09-09T03:52:02;95393.00;;;15.56;100.00
6347;BME280;3206;42.666;23.600;2022-09-09T03:54:28;95394.09;;;15.51;100.00
6347;BME280;3206;42.666;23.600;2022-09-09T03:56:55;95386.44;;;15.53;100.00
6347;BME280;3206;42.666;23.600;2022-09-09T03:59:23;95393.00;;;15.56;100.00
6347;BME280;3206;42.666;23.600;2022-09-09T04:01:50;95394.66;;;15.64;100.00
6347;BME280;3206;42.666;23.600;2022-09-09T04:04:17;95395.13;;;15.69;100.00
6347;BME280;3206;42.666;23.600;2022-09-09T04:06:45;95391.69;;;15.72;100.00
6347;BME280;3206;42.666;23.600;2022-09-09T04:09:14;95360.78;;;15.63;100.00
6347;BME280;3206;42.666;23.600;2022-09-09T04:11:41;95379.06;;;15.76;100.00
6347;BME280;3206;42.666;23.600;2022-09-09T04:14:08;95391.81;;;15.79;100.00
6347;BME280;3206;42.666;23.600;2022-09-09T04:16:35;95403.06;;;15.88;100.00
6347;BME280;3206;42.666;23.600;2022-09-09T04:19:03;95406.50;;;15.85;100.00
6347;BME280;3206;42.666;23.600;2022-09-09T04:21:32;95408.44;;;15.88;100.00
6347;BME280;3206;42.666;23.600;2022-09-09T04:23:59;95403.44;;;15.87;100.00
6347;BME280;3206;42.666;23.600;2022-09-09T04:26:27;95396.91;;;15.88;100.00
6347;BME280;3206;42.666;23.600;2022-09-09T04:28:53;95400.06;;;15.93;100.00
6347;BME280;3206;42.666;23.600;2022-09-09T04:31:22;95404.72;;;15.96;100.00
6347;BME280;3206;42.666;23.600;2022-09-09T04:33:49;95408.19;;;15.97;100.00
6347;BME280;3206;42.666;23.600;2022-09-09T04:36:16;95403.59;;;15.97;100.00
6347;BME280;3206;42.666;23.600;2022-09-09T04:38:43;95396.00;;;16.06;100.00
6347;BME280;3206;42.666;23.600;2022-09-09T04:41:10;95400.66;;;16.09;100.00
6347;BME280;3206;42.666;23.600;2022-09-09T04:43:39;95386.00;;;16.07;100.00
6347;BME280;3206;42.666;23.600;2022-09-09T04:46:06;95385.94;;;16.03;100.00
6347;BME280;3206;42.666;23.600;2022-09-09T04:48:33;95400.72;;;16.16;100.00
6347;BME280;3206;42.666;23.600;2022-09-09T04:51:02;95399.09;;;16.08;100.00
6347;BME280;3206;42.666;23.600;2022-09-09T04:53:30;95399.81;;;16.05;100.00
6347;BME280;3206;42.666;23.600;2022-09-09T04:56:01;95402.94;;;16.07;100.00
6347;BME280;3206;42.666;23.600;2022-09-09T04:58:28;95401.69;;;16.01;100.00
6347;BME280;3206;42.666;23.600;2022-09-09T05:01:03;95402.50;;;16.05;100.00
6347;BME280;3206;42.666;23.600;2022-09-09T05:03:29;95395.16;;;16.02;100.00
6347;BME280;3206;42.666;23.600;2022-09-09T05:06:02;95395.34;;;16.16;100.00
6347;BME280;3206;42.666;23.600;2022-09-09T05:08:29;95398.41;;;16.15;100.00
6347;BME280;3206;42.666;23.600;2022-09-09T05:10:56;95353.59;;;16.03;100.00
6347;BME280;3206;42.666;23.600;2022-09-09T05:13:23;95377.84;;;16.33;100.00
6347;BME280;3206;42.666;23.600;2022-09-09T05:15:51;95371.78;;;16.43;100.00
6347;BME280;3206;42.666;23.600;2022-09-09T05:18:20;95356.56;;;16.57;100.00
6347;BME280;3206;42.666;23.600;2022-09-09T05:20:47;95359.69;;;16.66;100.00
6347;BME280;3206;42.666;23.600;2022-09-09T05:23:14;95363.69;;;16.79;100.00
6347;BME280;3206;42.666;23.600;2022-09-09T05:25:41;95370.00;;;16.97;100.00
6347;BME280;3206;42.666;23.600;2022-09-09T05:28:08;95363.94;;;17.07;100.00
6347;BME280;3206;42.666;23.600;2022-09-09T05:30:37;95364.41;;;17.19;100.00
6347;BME280;3206;42.666;23.600;2022-09-09T05:33:04;95363.78;;;17.36;100.00
6347;BME280;3206;42.666;23.600;2022-09-09T05:35:33;95361.63;;;17.56;100.00
6347;BME280;3206;42.666;23.600;2022-09-09T05:38:00;95372.06;;;17.68;100.00
6347;BME280;3206;42.666;23.600;2022-09-09T05:40:27;95368.31;;;17.83;100.00
6347;BME280;3206;42.666;23.600;2022-09-09T05:43:00;95361.44;;;18.03;100.00
6347;BME280;3206;42.666;23.600;2022-09-09T05:45:27;95360.72;;;18.20;100.00
6347;BME280;3206;42.666;23.600;2022-09-09T05:47:55;95373.19;;;18.35;100.00
6347;BME280;3206;42.666;23.600;2022-09-09T05:50:25;95374.78;;;18.46;100.00
6347;BME280;3206;42.666;23.600;2022-09-09T05:52:55;95368.25;;;18.68;100.00
6347;BME280;3206;42.666;23.600;2022-09-09T05:55:23;95365.16;;;18.84;100.00
6347;BME280;3206;42.666;23.600;2022-09-09T05:57:51;95382.63;;;19.03;100.00
6347;BME280;3206;42.666;23.600;2022-09-09T06:00:18;95385.72;;;19.23;100.00
6347;BME280;3206;42.666;23.600;2022-09-09T06:02:51;95373.34;;;19.39;100.00
6347;BME280;3206;42.666;23.600;2022-09-09T06:05:19;95379.53;;;19.61;100.00
6347;BME280;3206;42.666;23.600;2022-09-09T06:07:51;95381.03;;;19.76;100.00
6347;BME280;3206;42.666;23.600;2022-09-09T06:10:21;95379.44;;;19.92;100.00
6347;BME280;3206;42.666;23.600;2022-09-09T06:12:48;95387.16;;;20.08;100.00
6347;BME280;3206;42.666;23.600;2022-09-09T06:15:16;95382.84;;;20.24;100.00
6347;BME280;3206;42.666;23.600;2022-09-09T06:17:43;95388.59;;;20.37;100.00
6347;BME280;3206;42.666;23.600;2022-09-09T06:20:11;95384.66;;;20.52;100.00
6347;BME280;3206;42.666;23.600;2022-09-09T06:22:39;95398.19;;;20.62;100.00
6347;BME280;3206;42.666;23.600;2022-09-09T06:25:08;95392.69;;;20.73;100.00
6347;BME280;3206;42.666;23.600;2022-09-09T06:27:38;95395.34;;;20.87;100.00
6347;BME280;3206;42.666;23.600;2022-09-09T06:30:06;95395.25;;;21.01;100.00
6347;BME280;3206;42.666;23.600;2022-09-09T06:32:33;95394.44;;;21.10;100.00
6347;BME280;3206;42.666;23.600;2022-09-09T06:35:04;95393.94;;;21.22;100.00
6347;BME280;3206;42.666;23.600;2022-09-09T06:37:31;95389.97;;;21.34;100.00
6347;BME280;3206;42.666;23.600;2022-09-09T06:39:58;95397.22;;;21.47;100.00
6347;BME280;3206;42.666;23.600;2022-09-09T06:42:25;95391.31;;;21.59;100.00
6347;BME280;3206;42.666;23.600;2022-09-09T06:44:54;95386.91;;;21.72;100.00
6347;BME280;3206;42.666;23.600;2022-09-09T06:47:21;95393.00;;;21.87;100.00
6347;BME280;3206;42.666;23.600;2022-09-09T06:49:48;95392.09;;;22.00;100.00
6347;BME280;3206;42.666;23.600;2022-09-09T06:52:16;95395.06;;;22.13;100.00
6347;BME280;3206;42.666;23.600;2022-09-09T06:54:43;95387.50;;;22.27;100.00
6347;BME280;3206;42.666;23.600;2022-09-09T06:57:11;95380.03;;;22.35;100.00
6347;BME280;3206;42.666;23.600;2022-09-09T06:59:38;95386.81;;;22.53;100.00
6347;BME280;3206;42.666;23.600;2022-09-09T07:02:07;95384.94;;;22.47;100.00
6347;BME280;3206;42.666;23.600;2022-09-09T07:04:34;95397.69;;;22.83;100.00
6347;BME280;3206;42.666;23.600;2022-09-09T07:07:04;95402.44;;;23.05;100.00
6347;BME280;3206;42.666;23.600;2022-09-09T07:09:32;95402.34;;;23.12;100.00
6347;BME280;3206;42.666;23.600;2022-09-09T07:11:59;95402.72;;;23.14;100.00
6347;BME280;3206;42.666;23.600;2022-09-09T07:14:26;95402.06;;;23.33;100.00
6347;BME280;3206;42.666;23.600;2022-09-09T07:16:53;95397.34;;;23.34;100.00
6347;BME280;3206;42.666;23.600;2022-09-09T07:19:22;95399.91;;;23.44;100.00
6347;BME280;3206;42.666;23.600;2022-09-09T07:21:50;95393.56;;;23.51;100.00
6347;BME280;3206;42.666;23.600;2022-09-09T07:24:17;95384.66;;;23.50;100.00
6347;BME280;3206;42.666;23.600;2022-09-09T07:26:44;95386.88;;;23.55;100.00
6347;BME280;3206;42.666;23.600;2022-09-09T07:29:11;95392.41;;;23.75;100.00
6347;BME280;3206;42.666;23.600;2022-09-09T07:31:40;95395.81;;;23.82;100.00
6347;BME280;3206;42.666;23.600;2022-09-09T07:34:08;95384.28;;;23.94;100.00
6347;BME280;3206;42.666;23.600;2022-09-09T07:36:38;95378.16;;;24.10;100.00
6347;BME280;3206;42.666;23.600;2022-09-09T07:39:07;95387.94;;;24.27;100.00
6347;BME280;3206;42.666;23.600;2022-09-09T07:41:36;95384.59;;;24.39;100.00
6347;BME280;3206;42.666;23.600;2022-09-09T07:44:11;95377.50;;;24.41;100.00
6347;BME280;3206;42.666;23.600;2022-09-09T07:46:39;95387.31;;;24.58;100.00
6347;BME280;3206;42.666;23.600;2022-09-09T07:49:13;95383.13;;;24.73;100.00
6347;BME280;3206;42.666;23.600;2022-09-09T07:51:49;95380.66;;;24.79;100.00
6347;BME280;3206;42.666;23.600;2022-09-09T07:54:25;95380.66;;;24.79;100.00
6347;BME280;3206;42.666;23.600;2022-09-09T07:57:09;95369.19;;;24.68;100.00
6347;BME280;3206;42.666;23.600;2022-09-09T07:59:53;95385.50;;;24.71;100.00
6347;BME280;3206;42.666;23.600;2022-09-09T08:02:32;95392.19;;;24.86;100.00
6347;BME280;3206;42.666;23.600;2022-09-09T08:05:06;95389.50;;;25.02;100.00
6347;BME280;3206;42.666;23.600;2022-09-09T08:07:55;95392.25;;;25.18;100.00
6347;BME280;3206;42.666;23.600;2022-09-09T08:10:22;95385.78;;;25.60;100.00
6347;BME280;3206;42.666;23.600;2022-09-09T08:12:50;95389.31;;;26.21;100.00
6347;BME280;3206;42.666;23.600;2022-09-09T08:15:17;95388.91;;;27.04;90.40
6347;BME280;3206;42.666;23.600;2022-09-09T08:17:45;95394.06;;;27.64;82.80
6347;BME280;3206;42.666;23.600;2022-09-09T08:20:13;95387.56;;;27.58;82.25
6347;BME280;3206;42.666;23.600;2022-09-09T08:22:41;95382.66;;;28.00;80.64
6347;BME280;3206;42.666;23.600;2022-09-09T08:25:09;95384.00;;;28.94;72.44
6347;BME280;3206;42.666;23.600;2022-09-09T08:27:37;95381.72;;;29.62;66.49
6347;BME280;3206;42.666;23.600;2022-09-09T08:30:05;95384.09;;;29.99;65.76
6347;BME280;3206;42.666;23.600;2022-09-09T08:32:32;95379.84;;;31.62;60.38
6347;BME280;3206;42.666;23.600;2022-09-09T08:35:01;95390.84;;;31.80;57.81
6347;BME280;3206;42.666;23.600;2022-09-09T08:37:28;95385.94;;;31.42;56.54
6347;BME280;3206;42.666;23.600;2022-09-09T08:39:56;95379.31;;;31.81;56.24
6347;BME280;3206;42.666;23.600;2022-09-09T08:42:38;95379.56;;;31.92;53.79
6347;BME280;3206;42.666;23.600;2022-09-09T08:45:28;95377.69;;;31.33;56.29
6347;BME280;3206;42.666;23.600;2022-09-09T08:48:15;95379.31;;;30.99;56.45
6347;BME280;3206;42.666;23.600;2022-09-09T08:50:49;95377.25;;;30.58;56.80
6347;BME280;3206;42.666;23.600;2022-09-09T08:53:20;95363.44;;;29.95;58.24
6347;BME280;3206;42.666;23.600;2022-09-09T08:55:55;95362.38;;;30.01;61.79
6347;BME280;3206;42.666;23.600;2022-09-09T08:58:26;95362.19;;;29.96;60.44
6347;BME280;3206;42.666;23.600;2022-09-09T09:01:02;95369.28;;;30.42;57.70
6347;BME280;3206;42.666;23.600;2022-09-09T09:03:48;95362.78;;;31.96;55.51
6347;BME280;3206;42.666;23.600;2022-09-09T09:06:40;95370.28;;;33.72;51.27
6347;BME280;3206;42.666;23.600;2022-09-09T09:09:18;95364.81;;;34.18;50.21
6347;BME280;3206;42.666;23.600;2022-09-09T09:11:54;95360.81;;;34.59;48.76
6347;BME280;3206;42.666;23.600;2022-09-09T09:14:28;95367.31;;;33.76;48.07
6347;BME280;3206;42.666;23.600;2022-09-09T09:16:58;95356.41;;;32.66;51.00
6347;BME280;3206;42.666;23.600;2022-09-09T09:19:27;95354.16;;;32.41;52.15
6347;BME280;3206;42.666;23.600;2022-09-09T09:22:21;95348.84;;;32.14;53.29
6347;BME280;3206;42.666;23.600;2022-09-09T09:24:56;95354.72;;;31.83;55.42
6347;BME280;3206;42.666;23.600;2022-09-09T09:27:33;95353.19;;;31.82;55.67
6347;BME280;3206;42.666;23.600;2022-09-09T09:30:12;95354.50;;;31.72;56.84
6347;BME280;3206;42.666;23.600;2022-09-09T09:32:48;95350.50;;;31.41;56.72
6347;BME280;3206;42.666;23.600;2022-09-09T09:35:20;95343.59;;;30.95;55.22
6347;BME280;3206;42.666;23.600;2022-09-09T09:37:47;95337.19;;;30.80;56.81
6347;BME280;3206;42.666;23.600;2022-09-09T09:40:17;95338.16;;;31.19;57.79
6347;BME280;3206;42.666;23.600;2022-09-09T09:42:51;95350.38;;;31.91;56.13
6347;BME280;3206;42.666;23.600;2022-09-09T09:45:28;95348.16;;;32.04;55.53
6347;BME280;3206;42.666;23.600;2022-09-09T09:48:13;95350.16;;;31.80;55.22
6347;BME280;3206;42.666;23.600;2022-09-09T09:51:00;95355.75;;;31.62;58.01
6347;BME280;3206;42.666;23.600;2022-09-09T09:53:29;95346.91;;;32.05;55.78
6347;BME280;3206;42.666;23.600;2022-09-09T09:55:59;95345.16;;;33.13;54.03
6347;BME280;3206;42.666;23.600;2022-09-09T09:58:30;95348.50;;;33.02;51.58
6347;BME280;3206;42.666;23.600;2022-09-09T10:00:59;95340.06;;;32.53;53.47
6347;BME280;3206;42.666;23.600;2022-09-09T10:03:28;95328.00;;;32.27;52.44
6347;BME280;3206;42.666;23.600;2022-09-09T10:05:55;95327.63;;;32.34;53.68
6347;BME280;3206;42.666;23.600;2022-09-09T10:08:23;95317.31;;;32.20;54.25
6347;BME280;3206;42.666;23.600;2022-09-09T10:10:57;95315.03;;;32.33;53.64
6347;BME280;3206;42.666;23.600;2022-09-09T10:13:31;95322.44;;;32.13;54.49
6347;BME280;3206;42.666;23.600;2022-09-09T10:16:20;95324.75;;;31.67;54.88
6347;BME280;3206;42.666;23.600;2022-09-09T10:18:58;95320.94;;;31.88;56.31
6347;BME280;3206;42.666;23.600;2022-09-09T10:21:37;95323.91;;;31.99;56.11
6347;BME280;3206;42.666;23.600;2022-09-09T10:24:23;95325.84;;;31.84;55.71
6347;BME280;3206;42.666;23.600;2022-09-09T10:27:01;95328.50;;;31.55;55.14
6347;BME280;3206;42.666;23.600;2022-09-09T10:29:43;95323.28;;;32.04;56.37
6347;BME280;3206;42.666;23.600;2022-09-09T10:35:14;95325.72;;;32.02;54.68
6347;BME280;3206;42.666;23.600;2022-09-09T10:38:01;95322.47;;;31.89;57.04
6347;BME280;3206;42.666;23.600;2022-09-09T10:40:33;95331.28;;;31.46;55.38
6347;BME280;3206;42.666;23.600;2022-09-09T10:43:10;95325.34;;;31.07;60.45
6347;BME280;3206;42.666;23.600;2022-09-09T10:45:48;95334.75;;;31.33;59.16
6347;BME280;3206;42.666;23.600;2022-09-09T10:48:30;95334.91;;;31.61;59.15
6347;BME280;3206;42.666;23.600;2022-09-09T10:51:04;95329.06;;;31.59;58.48
6347;BME280;3206;42.666;23.600;2022-09-09T10:53:43;95328.78;;;31.57;60.25
6347;BME280;3206;42.666;23.600;2022-09-09T10:56:16;95332.28;;;31.58;60.16
6347;BME280;3206;42.666;23.600;2022-09-09T10:58:48;95327.41;;;31.30;62.12
6347;BME280;3206;42.666;23.600;2022-09-09T11:01:22;95332.75;;;30.92;62.11
6347;BME280;3206;42.666;23.600;2022-09-09T11:03:54;95325.88;;;30.78;64.91
6347;BME280;3206;42.666;23.600;2022-09-09T11:06:26;95319.00;;;30.56;63.95
6347;BME280;3206;42.666;23.600;2022-09-09T11:08:55;95286.75;;;30.20;66.85
6347;BME280;3206;42.666;23.600;2022-09-09T11:11:27;95311.41;;;30.24;64.08
6347;BME280;3206;42.666;23.600;2022-09-09T11:14:01;95319.94;;;29.99;66.83
6347;BME280;3206;42.666;23.600;2022-09-09T11:16:35;95318.69;;;29.73;69.17
6347;BME280;3206;42.666;23.600;2022-09-09T11:19:14;95302.66;;;29.23;70.07
6347;BME280;3206;42.666;23.600;2022-09-09T11:21:46;95331.81;;;29.12;73.18
6347;BME280;3206;42.666;23.600;2022-09-09T11:24:16;95329.22;;;29.08;75.67
6347;BME280;3206;42.666;23.600;2022-09-09T11:26:50;95331.69;;;28.85;78.91
6347;BME280;3206;42.666;23.600;2022-09-09T11:35:19;95315.03;;;27.93;85.71
6347;BME280;3206;42.666;23.600;2022-09-09T11:38:05;95314.19;;;28.05;87.03
6347;BME280;3206;42.666;23.600;2022-09-09T11:40:34;95317.81;;;28.36;88.94
6347;BME280;3206;42.666;23.600;2022-09-09T11:43:03;95310.66;;;28.60;81.02
6347;BME280;3206;42.666;23.600;2022-09-09T11:45:32;95303.03;;;28.95;80.67
6347;BME280;3206;42.666;23.600;2022-09-09T11:48:03;95302.47;;;29.09;84.41
6347;BME280;3206;42.666;23.600;2022-09-09T11:50:34;95303.75;;;28.56;80.36
6347;BME280;3206;42.666;23.600;2022-09-09T11:53:18;95296.72;;;28.33;83.97
6347;BME280;3206;42.666;23.600;2022-09-09T11:56:04;95283.16;;;28.17;86.29
6347;BME280;3206;42.666;23.600;2022-09-09T11:58:53;95281.75;;;27.91;83.17
6347;BME280;3206;42.666;23.600;2022-09-09T12:01:29;95286.53;;;27.78;88.74
6347;BME280;3206;42.666;23.600;2022-09-09T12:07:03;95268.59;;;27.86;87.22
6347;BME280;3206;42.666;23.600;2022-09-09T12:09:43;95265.34;;;28.00;88.38
6347;BME280;3206;42.666;23.600;2022-09-09T12:12:32;95251.34;;;28.07;82.71
6347;BME280;3206;42.666;23.600;2022-09-09T12:15:03;95236.19;;;28.24;80.45
6347;BME280;3206;42.666;23.600;2022-09-09T12:17:44;95250.47;;;28.62;86.66
6347;BME280;3206;42.666;23.600;2022-09-09T12:20:14;95255.44;;;28.85;80.79
6347;BME280;3206;42.666;23.600;2022-09-09T12:22:51;95255.81;;;28.96;80.31
6347;BME280;3206;42.666;23.600;2022-09-09T12:25:26;95264.56;;;29.13;76.28
6347;BME280;3206;42.666;23.600;2022-09-09T12:28:08;95253.53;;;29.70;73.87
6347;BME280;3206;42.666;23.600;2022-09-09T12:30:43;95251.38;;;30.01;68.43
6347;BME280;3206;42.666;23.600;2022-09-09T12:33:16;95248.00;;;29.88;68.57
6347;BME280;3206;42.666;23.600;2022-09-09T12:35:47;95236.41;;;29.93;66.44
6347;BME280;3206;42.666;23.600;2022-09-09T12:38:24;95232.13;;;29.65;67.22
6347;BME280;3206;42.666;23.600;2022-09-09T12:40:55;95230.22;;;29.26;70.41
6347;BME280;3206;42.666;23.600;2022-09-09T12:43:24;95228.03;;;29.03;75.95
6347;BME280;3206;42.666;23.600;2022-09-09T12:45:54;95224.41;;;29.33;74.16
6347;BME280;3206;42.666;23.600;2022-09-09T12:48:28;95216.50;;;29.53;73.64
6347;BME280;3206;42.666;23.600;2022-09-09T12:50:59;95214.34;;;29.93;70.88
6347;BME280;3206;42.666;23.600;2022-09-09T12:53:28;95217.31;;;30.58;72.24
6347;BME280;3206;42.666;23.600;2022-09-09T12:55:57;95216.72;;;30.86;63.64
6347;BME280;3206;42.666;23.600;2022-09-09T12:58:26;95210.81;;;30.70;63.71
6347;BME280;3206;42.666;23.600;2022-09-09T13:00:58;95203.94;;;30.56;61.61
6347;BME280;3206;42.666;23.600;2022-09-09T13:03:27;95207.31;;;30.60;64.32
6347;BME280;3206;42.666;23.600;2022-09-09T13:05:59;95203.09;;;30.41;63.14
6347;BME280;3206;42.666;23.600;2022-09-09T13:08:36;95203.28;;;30.29;66.40
6347;BME280;3206;42.666;23.600;2022-09-09T13:11:07;95204.16;;;30.44;66.15
6347;BME280;3206;42.666;23.600;2022-09-09T13:13:37;95208.00;;;30.37;65.29
6347;BME280;3206;42.666;23.600;2022-09-09T13:16:06;95212.88;;;30.42;64.43
6347;BME280;3206;42.666;23.600;2022-09-09T13:18:38;95207.00;;;30.67;66.31
6347;BME280;3206;42.666;23.600;2022-09-09T13:21:09;95186.91;;;30.99;66.75
6347;BME280;3206;42.666;23.600;2022-09-09T13:23:37;95197.34;;;31.28;61.81
6347;BME280;3206;42.666;23.600;2022-09-09T13:26:05;95194.31;;;30.61;63.93
6347;BME280;3206;42.666;23.600;2022-09-09T13:28:33;95196.63;;;30.44;65.06
6347;BME280;3206;42.666;23.600;2022-09-09T13:31:01;95164.63;;;30.38;64.05
6347;BME280;3206;42.666;23.600;2022-09-09T13:33:33;95193.88;;;30.86;62.69
6347;BME280;3206;42.666;23.600;2022-09-09T13:36:01;95194.06;;;30.82;63.72
6347;BME280;3206;42.666;23.600;2022-09-09T13:38:32;95204.38;;;30.96;65.51
6347;BME280;3206;42.666;23.600;2022-09-09T13:41:02;95192.22;;;31.12;67.29